createdAt,value
2018-05-07T00:00:59.033Z,54.20
2018-05-07T00:02:07.651Z,54.20
2018-05-07T00:03:16.247Z,54.30
2018-05-07T00:04:24.894Z,54.40
2018-05-07T00:05:33.623Z,54.90
2018-05-07T00:06:42.311Z,55.20
2018-05-07T00:07:50.915Z,55.60
2018-05-07T00:08:59.547Z,56.00
2018-05-07T00:10:08.411Z,56.30
2018-05-07T00:11:17.102Z,56.60
2018-05-07T00:12:25.848Z,56.70
2018-05-07T00:13:34.506Z,56.80
2018-05-07T00:14:43.212Z,57.10
2018-05-07T00:15:51.920Z,57.20
2018-05-07T00:17:00.915Z,57.20
2018-05-07T00:18:09.723Z,57.30
2018-05-07T00:19:18.359Z,57.60
2018-05-07T00:20:27.053Z,57.90
2018-05-07T00:21:35.685Z,58.20
2018-05-07T00:22:44.606Z,58.20
2018-05-07T00:23:53.411Z,57.90
2018-05-07T00:25:02.001Z,58.50
2018-05-07T00:26:10.623Z,58.60
2018-05-07T00:27:19.185Z,58.80
2018-05-07T00:28:27.840Z,58.90
2018-05-07T00:29:36.570Z,59.20
2018-05-07T00:30:45.236Z,59.20
2018-05-07T00:31:54.039Z,59.40
2018-05-07T00:33:02.794Z,59.60
2018-05-07T00:34:11.395Z,59.80
2018-05-07T00:35:20.111Z,60.10
2018-05-07T00:36:28.778Z,60.40
2018-05-07T00:37:37.474Z,60.80
2018-05-07T00:38:46.102Z,61.10
2018-05-07T00:39:54.722Z,61.30
2018-05-07T00:41:03.311Z,61.40
2018-05-07T00:42:11.935Z,61.50
2018-05-07T00:43:20.599Z,61.60
2018-05-07T00:44:29.391Z,61.60
2018-05-07T00:45:38.017Z,61.60
2018-05-07T00:46:46.630Z,61.60
2018-05-07T00:47:55.269Z,61.90
2018-05-07T00:49:03.868Z,62.10
2018-05-07T00:50:12.472Z,62.10
2018-05-07T00:51:21.259Z,62.20
2018-05-07T00:52:30.079Z,62.20
2018-05-07T00:53:39.650Z,62.70
2018-05-07T00:55:00.529Z,62.60
2018-05-07T00:56:09.391Z,62.80
2018-05-07T00:57:18.015Z,62.70
2018-05-07T00:58:26.665Z,63.00
2018-05-07T00:59:35.259Z,63.10
2018-05-07T01:00:43.901Z,63.30
2018-05-07T01:01:53.226Z,63.50
2018-05-07T01:03:02.736Z,63.50
2018-05-07T01:04:11.456Z,63.50
2018-05-07T01:05:20.178Z,63.50
2018-05-07T01:06:28.775Z,63.50
2018-05-07T01:07:37.407Z,63.70
2018-05-07T01:08:45.987Z,64.00
2018-05-07T01:09:54.655Z,64.10
2018-05-07T01:11:03.244Z,64.60
2018-05-07T01:12:11.975Z,64.80
2018-05-07T01:13:20.619Z,65.20
2018-05-07T01:14:29.258Z,65.30
2018-05-07T01:15:38.716Z,66.00
2018-05-07T01:16:47.383Z,66.00
2018-05-07T01:17:56.219Z,65.90
2018-05-07T01:19:04.943Z,65.90
2018-05-07T01:20:13.635Z,66.00
2018-05-07T01:21:22.342Z,66.10
2018-05-07T01:22:31.870Z,66.30
2018-05-07T01:23:41.277Z,66.40
2018-05-07T01:24:49.889Z,66.40
2018-05-07T01:25:58.500Z,66.60
2018-05-07T01:27:07.108Z,66.80
2018-05-07T01:28:15.818Z,67.10
2018-05-07T01:29:24.315Z,66.90
2018-05-07T01:30:33.047Z,67.20
2018-05-07T01:31:41.669Z,67.20
2018-05-07T01:32:50.355Z,67.20
2018-05-07T01:33:58.908Z,67.50
2018-05-07T01:35:07.520Z,67.70
2018-05-07T01:36:16.096Z,67.80
2018-05-07T01:37:24.794Z,67.90
2018-05-07T01:38:33.569Z,68.10
2018-05-07T01:39:42.945Z,68.30
2018-05-07T01:40:51.571Z,68.30
2018-05-07T01:42:00.965Z,68.70
2018-05-07T01:43:09.692Z,68.70
2018-05-07T01:44:18.286Z,68.80
2018-05-07T01:45:27.083Z,68.90
2018-05-07T01:46:36.623Z,69.40
2018-05-07T01:47:45.307Z,69.40
2018-05-07T01:48:53.999Z,69.70
2018-05-07T01:50:02.576Z,70.00
2018-05-07T01:51:11.208Z,70.70
2018-05-07T01:52:19.878Z,71.10
2018-05-07T01:53:29.236Z,72.00
2018-05-07T01:54:37.872Z,72.00
2018-05-07T01:55:47.459Z,73.50
2018-05-07T01:56:56.359Z,73.40
2018-05-07T01:58:04.915Z,73.90
2018-05-07T01:59:13.730Z,74.10
2018-05-07T02:00:22.483Z,74.30
2018-05-07T02:01:31.146Z,74.80
2018-05-07T02:02:39.982Z,75.70
2018-05-07T02:03:48.529Z,75.80
2018-05-07T02:04:57.234Z,76.10
2018-05-07T02:06:05.932Z,76.60
2018-05-07T02:07:14.667Z,77.00
2018-05-07T02:08:23.416Z,77.50
2018-05-07T02:09:32.142Z,77.60
2018-05-07T02:10:40.790Z,77.70
2018-05-07T02:11:49.433Z,78.10
2018-05-07T02:12:58.115Z,78.40
2018-05-07T02:14:06.804Z,78.40
2018-05-07T02:15:15.454Z,78.50
2018-05-07T02:16:24.081Z,79.10
2018-05-07T02:17:32.638Z,80.10
2018-05-07T02:18:41.254Z,80.20
2018-05-07T02:19:49.970Z,81.10
2018-05-07T02:20:58.681Z,81.10
2018-05-07T02:22:07.305Z,81.10
2018-05-07T02:23:15.907Z,80.90
2018-05-07T02:24:25.509Z,80.90
2018-05-07T02:25:34.139Z,81.00
2018-05-07T02:26:42.966Z,81.30
2018-05-07T02:27:51.731Z,81.80
2018-05-07T02:29:01.131Z,82.70
2018-05-07T02:30:09.833Z,82.70
2018-05-07T02:31:18.565Z,83.20
2018-05-07T02:32:27.203Z,83.40
2018-05-07T02:33:35.823Z,84.00
2018-05-07T02:34:44.485Z,84.40
2018-05-07T02:35:53.101Z,84.50
2018-05-07T02:37:01.850Z,84.50
2018-05-07T02:38:10.723Z,84.60
2018-05-07T02:39:20.336Z,84.70
2018-05-07T02:40:29.103Z,84.70
2018-05-07T02:41:37.753Z,85.20
2018-05-07T02:42:46.293Z,85.20
2018-05-07T02:43:55.696Z,84.90
2018-05-07T02:45:04.323Z,84.80
2018-05-07T02:46:13.729Z,84.20
2018-05-07T02:47:22.428Z,84.00
2018-05-07T02:48:31.111Z,84.10
2018-05-07T02:49:39.804Z,84.00
2018-05-07T02:50:48.426Z,84.10
2018-05-07T02:51:57.148Z,83.90
2018-05-07T02:53:05.792Z,84.00
2018-05-07T02:54:14.778Z,83.90
2018-05-07T02:55:23.505Z,84.20
2018-05-07T02:56:32.521Z,84.40
2018-05-07T02:57:41.224Z,84.50
2018-05-07T02:58:49.829Z,84.70
2018-05-07T02:59:58.564Z,85.00
2018-05-07T03:01:07.277Z,85.50
2018-05-07T03:02:16.110Z,86.10
2018-05-07T03:03:24.813Z,86.50
2018-05-07T03:04:33.687Z,86.90
2018-05-07T03:05:42.468Z,86.70
2018-05-07T03:06:51.122Z,86.90
2018-05-07T03:07:59.876Z,87.20
2018-05-07T03:09:08.582Z,87.30
2018-05-07T03:10:17.251Z,87.30
2018-05-07T03:11:26.030Z,87.30
2018-05-07T03:12:35.424Z,88.10
2018-05-07T03:13:44.932Z,88.40
2018-05-07T03:14:53.522Z,87.70
2018-05-07T03:16:02.142Z,87.90
2018-05-07T03:17:11.610Z,87.90
2018-05-07T03:18:20.391Z,88.10
2018-05-07T03:19:29.192Z,88.20
2018-05-07T03:20:37.877Z,88.30
2018-05-07T03:21:46.446Z,88.50
2018-05-07T03:22:55.126Z,88.60
2018-05-07T03:24:04.462Z,89.50
2018-05-07T03:25:13.310Z,89.50
2018-05-07T03:26:22.902Z,89.80
2018-05-07T03:27:31.683Z,89.80
2018-05-07T03:28:40.347Z,89.90
2018-05-07T03:29:49.119Z,90.00
2018-05-07T03:30:57.749Z,90.00
2018-05-07T03:32:06.510Z,90.10
2018-05-07T03:33:15.227Z,90.00
2018-05-07T03:34:23.824Z,90.00
2018-05-07T03:35:32.488Z,90.00
2018-05-07T03:36:41.095Z,90.10
2018-05-07T03:37:49.898Z,90.10
2018-05-07T03:38:58.650Z,90.00
2018-05-07T03:40:07.222Z,89.90
2018-05-07T03:41:15.842Z,89.80
2018-05-07T03:42:24.486Z,90.10
2018-05-07T03:43:33.033Z,90.20
2018-05-07T03:44:41.675Z,90.20
2018-05-07T03:45:50.407Z,90.30
2018-05-07T03:46:58.991Z,90.40
2018-05-07T03:48:07.607Z,90.30
2018-05-07T03:49:16.238Z,90.40
2018-05-07T03:50:24.860Z,90.60
2018-05-07T03:51:34.366Z,90.50
2018-05-07T03:52:42.963Z,90.50
2018-05-07T03:53:51.744Z,90.40
2018-05-07T03:55:01.297Z,90.80
2018-05-07T03:56:09.908Z,90.60
2018-05-07T03:57:18.636Z,90.70
2018-05-07T03:58:27.374Z,90.80
2018-05-07T03:59:37.599Z,91.00
2018-05-07T04:00:46.261Z,91.00
2018-05-07T04:01:54.811Z,91.00
2018-05-07T04:03:03.397Z,91.10
2018-05-07T04:04:11.974Z,91.10
2018-05-07T04:05:20.654Z,91.20
2018-05-07T04:06:29.336Z,91.20
2018-05-07T04:07:38.073Z,91.30
2018-05-07T04:08:46.657Z,91.40
2018-05-07T04:09:55.537Z,91.30
2018-05-07T04:11:04.174Z,91.20
2018-05-07T04:12:13.526Z,91.10
2018-05-07T04:13:22.178Z,91.10
2018-05-07T04:14:30.909Z,91.00
2018-05-07T04:15:39.529Z,91.10
2018-05-07T04:17:00.365Z,91.20
2018-05-07T04:18:21.101Z,91.40
2018-05-07T04:19:41.711Z,91.30
2018-05-07T04:21:03.283Z,91.10
2018-05-07T04:22:23.933Z,91.10
2018-05-07T04:23:45.699Z,91.10
2018-05-07T04:24:54.339Z,91.10
2018-05-07T04:26:02.887Z,91.30
2018-05-07T04:27:11.460Z,91.30
2018-05-07T04:28:20.880Z,91.20
2018-05-07T04:29:29.682Z,91.20
2018-05-07T04:30:38.561Z,91.30
2018-05-07T04:31:47.386Z,91.30
2018-05-07T04:32:56.138Z,91.20
2018-05-07T04:34:05.712Z,91.30
2018-05-07T04:35:14.226Z,91.20
2018-05-07T04:36:22.834Z,91.30
2018-05-07T04:37:31.374Z,91.40
2018-05-07T04:38:40.131Z,91.30
2018-05-07T04:39:48.892Z,91.30
2018-05-07T04:40:58.471Z,91.40
2018-05-07T04:42:07.991Z,91.40
2018-05-07T04:43:17.473Z,91.40
2018-05-07T04:44:26.099Z,91.40
2018-05-07T04:45:34.981Z,91.40
2018-05-07T04:46:43.902Z,91.50
2018-05-07T04:47:52.467Z,91.60
2018-05-07T04:49:01.243Z,91.70
2018-05-07T04:50:10.643Z,91.70
2018-05-07T04:51:19.930Z,91.30
2018-05-07T04:52:28.670Z,91.20
2018-05-07T04:53:37.339Z,90.70
2018-05-07T04:54:46.034Z,90.70
2018-05-07T04:55:54.784Z,90.60
2018-05-07T04:57:03.490Z,90.70
2018-05-07T04:58:12.032Z,90.70
2018-05-07T04:59:20.810Z,90.60
2018-05-07T05:00:29.571Z,90.60
2018-05-07T05:01:38.236Z,90.50
2018-05-07T05:02:47.767Z,90.30
2018-05-07T05:03:56.408Z,90.20
2018-05-07T05:05:05.211Z,90.40
2018-05-07T05:06:13.957Z,90.40
2018-05-07T05:07:22.640Z,90.30
2018-05-07T05:08:31.229Z,90.10
2018-05-07T05:09:39.896Z,90.30
2018-05-07T05:10:49.350Z,90.30
2018-05-07T05:11:57.963Z,90.10
2018-05-07T05:13:06.679Z,89.30
2018-05-07T05:14:15.430Z,89.70
2018-05-07T05:15:24.096Z,90.00
2018-05-07T05:16:33.040Z,89.80
2018-05-07T05:17:42.331Z,90.10
2018-05-07T05:18:51.185Z,90.10
2018-05-07T05:19:59.998Z,90.00
2018-05-07T05:21:09.351Z,90.00
2018-05-07T05:22:18.926Z,90.00
2018-05-07T05:23:27.681Z,90.00
2018-05-07T05:24:36.399Z,89.80
2018-05-07T05:25:45.061Z,89.70
2018-05-07T05:26:53.763Z,89.80
2018-05-07T05:28:02.616Z,89.60
2018-05-07T05:29:12.056Z,89.40
2018-05-07T05:30:21.346Z,89.60
2018-05-07T05:31:29.969Z,89.00
2018-05-07T05:32:38.546Z,89.20
2018-05-07T05:33:48.092Z,89.20
2018-05-07T05:34:56.739Z,89.20
2018-05-07T05:36:05.540Z,89.10
2018-05-07T05:37:14.131Z,89.10
2018-05-07T05:38:22.848Z,88.70
2018-05-07T05:39:31.579Z,88.50
2018-05-07T05:40:40.241Z,88.50
2018-05-07T05:41:49.039Z,88.50
2018-05-07T05:42:57.705Z,88.60
2018-05-07T05:44:06.435Z,88.50
2018-05-07T05:45:15.101Z,88.80
2018-05-07T05:46:23.711Z,89.00
2018-05-07T05:47:32.341Z,89.00
2018-05-07T05:48:40.923Z,89.10
2018-05-07T05:49:49.571Z,89.20
2018-05-07T05:50:59.105Z,89.30
2018-05-07T05:52:07.692Z,89.30
2018-05-07T05:53:16.588Z,89.20
2018-05-07T05:54:25.263Z,89.10
2018-05-07T05:55:33.835Z,89.30
2018-05-07T05:56:42.491Z,88.80
2018-05-07T05:57:51.193Z,89.00
2018-05-07T05:58:59.992Z,88.70
2018-05-07T06:00:08.804Z,88.10
2018-05-07T06:01:18.178Z,87.70
2018-05-07T06:02:27.027Z,87.60
2018-05-07T06:03:35.757Z,87.90
2018-05-07T06:04:44.337Z,87.50
2018-05-07T06:05:52.951Z,87.50
2018-05-07T06:07:01.690Z,87.80
2018-05-07T06:08:10.499Z,87.80
2018-05-07T06:09:19.184Z,87.90
2018-05-07T06:10:27.806Z,87.90
2018-05-07T06:11:36.515Z,88.30
2018-05-07T06:12:45.168Z,87.70
2018-05-07T06:13:53.767Z,87.50
2018-05-07T06:15:02.435Z,87.60
2018-05-07T06:16:11.030Z,87.70
2018-05-07T06:17:19.664Z,87.80
2018-05-07T06:18:28.387Z,87.50
2018-05-07T06:19:37.157Z,87.20
2018-05-07T06:20:45.833Z,87.50
2018-05-07T06:21:54.444Z,87.80
2018-05-07T06:23:03.134Z,87.30
2018-05-07T06:24:11.955Z,86.80
2018-05-07T06:25:20.780Z,86.00
2018-05-07T06:26:29.514Z,86.10
2018-05-07T06:27:38.266Z,86.70
2018-05-07T06:28:47.133Z,86.60
2018-05-07T06:29:56.683Z,86.40
2018-05-07T06:31:05.297Z,85.90
2018-05-07T06:32:14.041Z,85.20
2018-05-07T06:33:23.552Z,85.80
2018-05-07T06:34:33.050Z,85.80
2018-05-07T06:35:41.665Z,85.60
2018-05-07T06:36:50.305Z,85.80
2018-05-07T06:37:59.002Z,85.70
2018-05-07T06:39:07.739Z,85.40
2018-05-07T06:40:16.320Z,85.20
2018-05-07T06:41:24.956Z,84.80
2018-05-07T06:42:33.657Z,84.60
2018-05-07T06:43:42.206Z,84.30
2018-05-07T06:44:50.771Z,83.70
2018-05-07T06:45:59.450Z,83.60
2018-05-07T06:47:08.240Z,83.90
2018-05-07T06:48:16.868Z,83.90
2018-05-07T06:49:25.521Z,83.90
2018-05-07T06:50:34.329Z,83.50
2018-05-07T06:51:43.652Z,83.80
2018-05-07T06:52:52.479Z,83.70
2018-05-07T06:54:01.053Z,83.10
2018-05-07T06:55:09.751Z,83.20
2018-05-07T06:56:18.510Z,83.20
2018-05-07T06:57:27.370Z,82.50
2018-05-07T06:58:36.050Z,82.70
2018-05-07T06:59:44.641Z,82.70
2018-05-07T07:00:53.230Z,82.60
2018-05-07T07:02:01.814Z,82.70
2018-05-07T07:03:10.472Z,82.40
2018-05-07T07:04:19.012Z,82.60
2018-05-07T07:05:27.631Z,82.40
2018-05-07T07:06:37.186Z,82.10
2018-05-07T07:07:45.798Z,82.00
2018-05-07T07:08:54.559Z,81.70
2018-05-07T07:10:03.131Z,81.90
2018-05-07T07:11:12.575Z,80.80
2018-05-07T07:12:21.300Z,80.80
2018-05-07T07:13:30.084Z,81.20
2018-05-07T07:14:38.701Z,81.30
2018-05-07T07:15:47.371Z,81.20
2018-05-07T07:16:56.062Z,80.30
2018-05-07T07:18:04.683Z,80.10
2018-05-07T07:19:13.299Z,80.20
2018-05-07T07:20:21.953Z,80.20
2018-05-07T07:21:32.289Z,80.50
2018-05-07T07:22:40.949Z,80.50
2018-05-07T07:23:50.514Z,80.30
2018-05-07T07:24:59.286Z,80.20
2018-05-07T07:26:07.925Z,80.30
2018-05-07T07:27:16.591Z,79.70
2018-05-07T07:28:25.281Z,79.50
2018-05-07T07:29:34.291Z,79.30
2018-05-07T07:30:42.866Z,79.60
2018-05-07T07:31:51.465Z,79.60
2018-05-07T07:33:01.052Z,78.90
2018-05-07T07:34:09.639Z,78.80
2018-05-07T07:35:18.357Z,78.90
2018-05-07T07:36:27.207Z,78.40
2018-05-07T07:37:35.786Z,78.00
2018-05-07T07:38:44.513Z,77.90
2018-05-07T07:39:53.042Z,77.60
2018-05-07T07:41:01.644Z,77.40
2018-05-07T07:42:10.282Z,77.60
2018-05-07T07:43:18.895Z,77.30
2018-05-07T07:44:27.469Z,76.90
2018-05-07T07:45:36.131Z,77.60
2018-05-07T07:46:44.828Z,76.70
2018-05-07T07:47:54.276Z,77.20
2018-05-07T07:49:03.805Z,76.90
2018-05-07T07:50:12.365Z,76.80
2018-05-07T07:51:20.947Z,76.90
2018-05-07T07:52:29.633Z,77.10
2018-05-07T07:53:38.238Z,77.20
2018-05-07T07:54:46.828Z,77.20
2018-05-07T07:55:55.542Z,77.10
2018-05-07T07:57:04.248Z,76.50
2018-05-07T07:58:13.010Z,76.10
2018-05-07T07:59:21.691Z,75.80
2018-05-07T08:00:30.588Z,76.10
2018-05-07T08:01:39.386Z,76.40
2018-05-07T08:02:48.158Z,76.20
2018-05-07T08:03:56.870Z,76.00
2018-05-07T08:05:05.476Z,75.90
2018-05-07T08:06:14.167Z,75.70
2018-05-07T08:07:22.856Z,75.70
2018-05-07T08:08:31.462Z,75.70
2018-05-07T08:09:40.181Z,76.10
2018-05-07T08:10:49.611Z,75.20
2018-05-07T08:11:58.226Z,75.20
2018-05-07T08:13:06.856Z,74.80
2018-05-07T08:14:15.568Z,74.10
2018-05-07T08:15:24.407Z,73.90
2018-05-07T08:16:33.223Z,74.30
2018-05-07T08:17:41.879Z,74.20
2018-05-07T08:18:51.409Z,73.80
2018-05-07T08:20:00.216Z,73.80
2018-05-07T08:21:09.259Z,73.40
2018-05-07T08:22:17.954Z,73.30
2018-05-07T08:23:27.491Z,72.80
2018-05-07T08:24:36.204Z,72.50
2018-05-07T08:25:44.807Z,72.40
2018-05-07T08:26:54.376Z,72.10
2018-05-07T08:28:03.675Z,72.40
2018-05-07T08:29:12.408Z,72.30
2018-05-07T08:30:21.087Z,72.80
2018-05-07T08:31:29.783Z,73.00
2018-05-07T08:32:38.439Z,72.70
2018-05-07T08:33:47.062Z,72.30
2018-05-07T08:34:56.576Z,72.60
2018-05-07T08:36:05.222Z,72.50
2018-05-07T08:37:14.618Z,72.70
2018-05-07T08:38:23.211Z,72.60
2018-05-07T08:39:31.828Z,72.00
2018-05-07T08:40:42.046Z,71.20
2018-05-07T08:41:50.762Z,71.20
2018-05-07T08:42:59.466Z,71.00
2018-05-07T08:44:08.165Z,70.80
2018-05-07T08:45:16.905Z,70.30
2018-05-07T08:46:25.509Z,70.30
2018-05-07T08:47:33.982Z,70.10
2018-05-07T08:48:42.594Z,70.30
2018-05-07T08:49:51.208Z,70.40
2018-05-07T08:50:59.811Z,70.30
2018-05-07T08:52:08.431Z,69.90
2018-05-07T08:53:17.924Z,69.90
2018-05-07T08:54:26.608Z,69.70
2018-05-07T08:55:35.321Z,68.80
2018-05-07T08:56:44.052Z,69.20
2018-05-07T08:57:52.759Z,69.10
2018-05-07T08:59:02.371Z,68.60
2018-05-07T09:00:11.054Z,68.60
2018-05-07T09:01:19.708Z,68.80
2018-05-07T09:02:28.352Z,69.00
2018-05-07T09:03:37.024Z,69.50
2018-05-07T09:04:45.766Z,69.80
2018-05-07T09:05:54.414Z,69.80
2018-05-07T09:07:03.106Z,68.90
2018-05-07T09:08:11.706Z,68.00
2018-05-07T09:09:20.460Z,67.80
2018-05-07T09:10:29.151Z,68.00
2018-05-07T09:11:37.900Z,67.00
2018-05-07T09:12:46.626Z,67.30
2018-05-07T09:13:56.010Z,67.00
2018-05-07T09:15:04.707Z,67.00
2018-05-07T09:16:13.319Z,67.40
2018-05-07T09:17:22.000Z,67.50
2018-05-07T09:18:30.697Z,67.10
2018-05-07T09:19:39.617Z,66.20
2018-05-07T09:20:48.419Z,66.50
2018-05-07T09:21:57.216Z,66.90
2018-05-07T09:23:05.912Z,67.20
2018-05-07T09:24:14.598Z,67.00
2018-05-07T09:25:23.274Z,66.40
2018-05-07T09:26:31.969Z,67.00
2018-05-07T09:27:40.617Z,66.80
2018-05-07T09:28:49.231Z,66.60
2018-05-07T09:29:58.004Z,66.70
2018-05-07T09:31:06.744Z,66.40
2018-05-07T09:32:15.326Z,65.80
2018-05-07T09:33:24.081Z,66.40
2018-05-07T09:34:32.726Z,66.20
2018-05-07T09:35:41.295Z,65.70
2018-05-07T09:36:50.739Z,64.90
2018-05-07T09:37:59.503Z,64.90
2018-05-07T09:39:08.982Z,64.60
2018-05-07T09:40:17.782Z,64.00
2018-05-07T09:41:26.547Z,64.60
2018-05-07T09:42:35.217Z,64.60
2018-05-07T09:43:43.904Z,64.60
2018-05-07T09:44:52.519Z,64.40
2018-05-07T09:46:02.110Z,64.10
2018-05-07T09:47:10.989Z,64.00
2018-05-07T09:48:19.655Z,63.50
2018-05-07T09:49:28.284Z,63.60
2018-05-07T09:50:36.916Z,63.20
2018-05-07T09:51:45.653Z,62.80
2018-05-07T09:52:54.233Z,62.90
2018-05-07T09:54:02.831Z,63.10
2018-05-07T09:55:11.556Z,63.20
2018-05-07T09:56:20.984Z,62.70
2018-05-07T09:57:29.683Z,62.70
2018-05-07T10:00:07.316Z,62.00
2018-05-07T10:01:15.938Z,61.90
2018-05-07T10:02:24.810Z,61.80
2018-05-07T10:03:33.424Z,62.10
2018-05-07T10:04:42.769Z,62.10
2018-05-07T10:05:51.347Z,62.10
2018-05-07T10:07:00.032Z,62.50
2018-05-07T10:08:08.642Z,62.50
2018-05-07T10:09:17.524Z,61.50
2018-05-07T10:10:26.228Z,61.20
2018-05-07T10:11:34.799Z,61.50
2018-05-07T10:12:43.354Z,60.90
2018-05-07T10:13:52.003Z,61.30
2018-05-07T10:15:00.675Z,60.90
2018-05-07T10:16:09.361Z,60.90
2018-05-07T10:17:17.932Z,61.10
2018-05-07T10:18:27.424Z,60.60
2018-05-07T10:19:36.081Z,60.60
2018-05-07T10:20:44.794Z,60.50
2018-05-07T10:21:53.641Z,59.90
2018-05-07T10:23:02.480Z,60.00
2018-05-07T10:24:11.208Z,59.30
2018-05-07T10:25:19.904Z,59.60
2018-05-07T10:26:28.482Z,59.80
2018-05-07T10:27:37.086Z,59.30
2018-05-07T10:28:45.761Z,59.10
2018-05-07T10:29:55.403Z,58.60
2018-05-07T10:31:04.059Z,58.60
2018-05-07T10:32:12.723Z,58.70
2018-05-07T10:33:21.441Z,58.30
2018-05-07T10:34:30.138Z,57.60
2018-05-07T10:35:38.675Z,57.40
2018-05-07T10:36:48.090Z,57.80
2018-05-07T10:37:56.822Z,57.70
2018-05-07T10:39:06.387Z,57.80
2018-05-07T10:40:15.035Z,57.80
2018-05-07T10:41:23.880Z,58.20
2018-05-07T10:42:32.736Z,58.00
2018-05-07T10:43:42.228Z,58.10
2018-05-07T10:44:50.810Z,58.10
2018-05-07T10:45:59.454Z,57.80
2018-05-07T10:47:08.099Z,57.50
2018-05-07T10:48:16.879Z,57.40
2018-05-07T10:49:25.540Z,57.60
2018-05-07T10:50:34.076Z,57.40
2018-05-07T10:51:42.806Z,56.80
2018-05-07T10:52:52.105Z,57.20
2018-05-07T10:54:01.621Z,57.20
2018-05-07T10:55:11.169Z,56.80
2018-05-07T10:56:19.947Z,56.80
2018-05-07T10:57:28.807Z,56.90
2018-05-07T10:58:37.578Z,57.10
2018-05-07T10:59:47.037Z,56.40
2018-05-07T11:00:55.888Z,56.40
2018-05-07T11:02:04.453Z,56.40
2018-05-07T11:03:13.349Z,56.00
2018-05-07T11:04:22.725Z,56.00
2018-05-07T11:05:31.317Z,56.00
2018-05-07T11:06:40.187Z,56.20
2018-05-07T11:07:49.056Z,56.00
2018-05-07T11:08:57.982Z,55.90
2018-05-07T11:10:06.637Z,56.00
2018-05-07T11:11:16.319Z,55.90
2018-05-07T11:12:25.139Z,55.90
2018-05-07T11:13:33.877Z,55.90
2018-05-07T11:14:42.500Z,55.70
2018-05-07T11:15:51.186Z,55.50
2018-05-07T11:16:59.939Z,55.50
2018-05-07T11:18:08.789Z,55.40
2018-05-07T11:19:18.194Z,55.60
2018-05-07T11:20:26.876Z,55.50
2018-05-07T11:21:35.647Z,55.40
2018-05-07T11:22:45.136Z,55.50
2018-05-07T11:23:53.890Z,55.50
2018-05-07T11:25:02.467Z,55.90
2018-05-07T11:26:11.273Z,54.70
2018-05-07T11:27:19.929Z,54.40
2018-05-07T11:28:28.659Z,54.50
2018-05-07T11:29:37.307Z,54.50
2018-05-07T11:30:45.982Z,53.80
2018-05-07T11:31:54.739Z,53.20
2018-05-07T11:33:04.250Z,54.20
2018-05-07T11:34:12.935Z,53.70
2018-05-07T11:35:22.392Z,53.40
2018-05-07T11:36:31.108Z,53.30
2018-05-07T11:37:39.652Z,53.50
2018-05-07T11:38:48.262Z,53.50
2018-05-07T11:39:57.068Z,53.50
2018-05-07T11:41:05.825Z,53.40
2018-05-07T11:42:14.453Z,53.60
2018-05-07T11:43:23.211Z,53.00
2018-05-07T11:44:31.985Z,53.20
2018-05-07T11:45:41.324Z,52.60
2018-05-07T11:46:50.666Z,52.60
2018-05-07T11:47:59.500Z,52.70
2018-05-07T11:49:08.070Z,52.80
2018-05-07T11:50:16.683Z,52.80
2018-05-07T11:51:26.171Z,52.80
2018-05-07T11:52:34.945Z,52.80
2018-05-07T11:53:43.602Z,52.90
2018-05-07T11:54:52.275Z,52.00
2018-05-07T11:56:01.734Z,51.90
2018-05-07T11:57:10.351Z,51.90
2018-05-07T11:58:19.074Z,51.80
2018-05-07T11:59:27.739Z,51.40
2018-05-07T12:00:36.636Z,51.30
2018-05-07T12:01:45.337Z,51.40
2018-05-07T12:02:54.794Z,51.20
2018-05-07T12:04:03.547Z,51.20
2018-05-07T12:05:12.326Z,50.90
2018-05-07T12:06:20.909Z,51.10
2018-05-07T12:07:30.333Z,50.60
2018-05-07T12:08:38.896Z,50.60
2018-05-07T12:09:48.578Z,50.40
2018-05-07T12:10:57.384Z,50.40
2018-05-07T12:12:06.086Z,50.40
2018-05-07T12:13:14.887Z,50.60
2018-05-07T12:14:23.635Z,50.60
2018-05-07T12:15:33.276Z,50.70
2018-05-07T12:16:42.099Z,50.60
2018-05-07T12:17:50.700Z,50.40
2018-05-07T12:18:59.206Z,50.10
2018-05-07T12:20:07.698Z,49.40
2018-05-07T12:21:16.271Z,49.30
2018-05-07T12:22:24.997Z,49.20
2018-05-07T12:23:33.573Z,48.40
2018-05-07T12:24:42.191Z,48.70
2018-05-07T12:25:50.799Z,48.40
2018-05-07T12:26:59.539Z,48.30
2018-05-07T12:28:08.223Z,48.50
2018-05-07T12:29:16.921Z,48.80
2018-05-07T12:30:25.613Z,49.00
2018-05-07T12:31:34.509Z,49.00
2018-05-07T12:32:43.065Z,48.80
2018-05-07T12:33:52.411Z,48.90
2018-05-07T12:35:01.854Z,48.90
2018-05-07T12:36:10.531Z,48.60
2018-05-07T12:37:19.908Z,48.30
2018-05-07T12:38:28.753Z,48.30
2018-05-07T12:39:38.312Z,47.40
2018-05-07T12:40:47.016Z,47.30
2018-05-07T12:41:55.731Z,46.50
2018-05-07T12:43:04.489Z,46.80
2018-05-07T12:44:13.311Z,46.70
2018-05-07T12:45:22.109Z,45.10
2018-05-07T12:46:30.736Z,44.90
2018-05-07T12:47:39.530Z,44.80
2018-05-07T12:48:49.769Z,45.70
2018-05-07T12:49:58.450Z,45.70
2018-05-07T12:51:07.073Z,45.50
2018-05-07T12:52:15.799Z,45.70
2018-05-07T12:53:24.472Z,46.00
2018-05-07T12:54:33.161Z,44.90
2018-05-07T12:55:41.783Z,45.00
2018-05-07T12:56:50.336Z,45.30
2018-05-07T12:57:58.970Z,45.30
2018-05-07T12:59:07.492Z,45.20
2018-05-07T13:00:16.104Z,45.50
2018-05-07T13:01:25.579Z,45.40
2018-05-07T13:02:34.256Z,45.30
2018-05-07T13:03:43.734Z,45.40
2018-05-07T13:04:53.259Z,44.70
2018-05-07T13:06:01.915Z,44.60
2018-05-07T13:07:10.543Z,45.10
2018-05-07T13:08:19.053Z,44.50
2018-05-07T13:09:27.716Z,44.10
2018-05-07T13:10:36.359Z,43.80
2018-05-07T13:11:44.902Z,44.10
2018-05-07T13:12:54.287Z,43.70
2018-05-07T13:14:03.077Z,43.70
2018-05-07T13:15:11.637Z,43.90
2018-05-07T13:16:20.288Z,43.70
2018-05-07T13:17:29.015Z,43.60
2018-05-07T13:18:37.693Z,43.00
2018-05-07T13:19:46.333Z,42.40
2018-05-07T13:20:54.974Z,42.30
2018-05-07T13:22:03.567Z,42.50
2018-05-07T13:23:12.395Z,42.10
2018-05-07T13:24:21.039Z,42.00
2018-05-07T13:25:29.773Z,42.00
2018-05-07T13:26:38.326Z,42.00
2018-05-07T13:27:47.100Z,42.30
2018-05-07T13:28:55.804Z,42.10
2018-05-07T13:30:04.511Z,41.70
2018-05-07T13:31:13.179Z,41.80
2018-05-07T13:32:21.909Z,41.40
2018-05-07T13:33:30.587Z,41.00
2018-05-07T13:34:39.382Z,40.90
2018-05-07T13:35:48.073Z,40.20
2018-05-07T13:36:56.764Z,39.80
2018-05-07T13:38:05.423Z,40.20
2018-05-07T13:39:14.022Z,40.20
2018-05-07T13:40:22.652Z,40.60
2018-05-07T13:41:31.385Z,41.10
2018-05-07T13:42:40.061Z,41.20
2018-05-07T13:43:48.681Z,41.50
2018-05-07T13:44:57.308Z,41.60
2018-05-07T13:46:06.099Z,41.40
2018-05-07T13:47:14.796Z,41.20
2018-05-07T13:48:23.488Z,41.00
2018-05-07T13:49:32.120Z,40.70
2018-05-07T13:50:40.891Z,39.90
2018-05-07T13:51:49.486Z,39.40
2018-05-07T13:52:58.163Z,38.50
2018-05-07T13:54:06.791Z,38.10
2018-05-07T13:55:15.496Z,38.20
2018-05-07T13:56:24.234Z,38.10
2018-05-07T13:57:32.956Z,38.00
2018-05-07T13:58:41.619Z,37.90
2018-05-07T13:59:50.194Z,37.90
2018-05-07T14:00:58.803Z,37.70
2018-05-07T14:02:08.293Z,37.60
2018-05-07T14:03:16.885Z,37.60
2018-05-07T14:04:25.548Z,37.30
2018-05-07T14:05:35.045Z,36.40
2018-05-07T14:06:43.896Z,36.40
2018-05-07T14:07:52.611Z,36.60
2018-05-07T14:09:01.182Z,37.00
2018-05-07T14:10:10.511Z,37.20
2018-05-07T14:11:19.082Z,37.20
2018-05-07T14:12:27.878Z,37.30
2018-05-07T14:13:36.531Z,37.30
2018-05-07T14:14:45.423Z,37.30
2018-05-07T14:15:54.033Z,37.40
2018-05-07T14:17:02.671Z,37.50
2018-05-07T14:18:11.262Z,37.60
2018-05-07T14:19:20.228Z,37.70
2018-05-07T14:20:28.858Z,37.40
2018-05-07T14:21:37.650Z,37.60
2018-05-07T14:22:46.259Z,37.40
2018-05-07T14:23:55.903Z,36.70
2018-05-07T14:25:04.596Z,36.70
2018-05-07T14:26:13.152Z,36.10
2018-05-07T14:27:21.619Z,35.90
2018-05-07T14:28:30.258Z,35.80
2018-05-07T14:29:38.998Z,35.00
2018-05-07T14:30:48.324Z,35.00
2018-05-07T14:31:56.983Z,35.00
2018-05-07T14:33:05.585Z,34.80
2018-05-07T14:34:14.343Z,34.70
2018-05-07T14:35:22.943Z,34.60
2018-05-07T14:36:31.488Z,34.60
2018-05-07T14:37:40.122Z,34.40
2018-05-07T14:38:49.668Z,34.60
2018-05-07T14:39:58.327Z,34.40
2018-05-07T14:41:06.895Z,34.60
2018-05-07T14:42:15.532Z,34.70
2018-05-07T14:43:24.319Z,34.60
2018-05-07T14:44:32.956Z,34.80
2018-05-07T14:45:42.480Z,35.30
2018-05-07T14:46:51.084Z,35.20
2018-05-07T14:48:00.451Z,35.40
2018-05-07T14:49:09.233Z,35.40